createdAt,value
2018-10-12T00:00:07.355Z,18.31
2018-10-12T00:02:35.416Z,18.35
2018-10-12T00:05:03.485Z,18.36
2018-10-12T00:07:31.537Z,18.36
2018-10-12T00:09:59.619Z,18.38
2018-10-12T00:12:27.710Z,18.37
2018-10-12T00:14:55.764Z,18.32
2018-10-12T00:17:23.827Z,18.26
2018-10-12T00:19:51.884Z,18.22
2018-10-12T00:22:19.944Z,18.17
2018-10-12T00:24:48.044Z,18.11
2018-10-12T00:27:16.090Z,18.08
2018-10-12T00:29:44.156Z,18.02
2018-10-12T00:32:12.208Z,17.96
2018-10-12T00:34:40.288Z,17.86
2018-10-12T00:37:08.337Z,17.78
2018-10-12T00:39:36.392Z,17.69
2018-10-12T00:42:04.543Z,17.65
2018-10-12T00:44:32.613Z,17.58
2018-10-12T00:47:00.696Z,17.52
2018-10-12T00:49:30.165Z,17.47
2018-10-12T00:51:58.216Z,17.40
2018-10-12T00:54:26.280Z,17.33
2018-10-12T00:56:54.322Z,17.26
2018-10-12T00:59:22.397Z,17.19
2018-10-12T01:01:50.436Z,17.13
2018-10-12T01:04:18.609Z,17.05
2018-10-12T01:06:46.755Z,16.95
2018-10-12T01:09:14.746Z,16.92
2018-10-12T01:11:42.841Z,16.87
2018-10-12T01:14:10.896Z,16.79
2018-10-12T01:16:38.995Z,16.79
2018-10-12T01:19:07.065Z,16.82
2018-10-12T01:21:35.141Z,16.85
2018-10-12T01:24:03.202Z,16.88
2018-10-12T01:26:31.274Z,16.97
2018-10-12T01:28:59.353Z,17.07
2018-10-12T01:31:28.258Z,17.14
2018-10-12T01:33:56.327Z,17.23
2018-10-12T01:36:24.450Z,17.32
2018-10-12T01:38:52.744Z,17.39
2018-10-12T01:41:20.816Z,17.52
2018-10-12T01:43:48.909Z,17.57
2018-10-12T01:46:17.041Z,17.72
2018-10-12T01:48:46.780Z,17.78
2018-10-12T01:51:14.849Z,17.80
2018-10-12T01:53:42.908Z,17.86
2018-10-12T01:56:11.016Z,17.87
2018-10-12T01:58:39.080Z,17.92
2018-10-12T02:01:07.183Z,17.88
2018-10-12T02:03:35.316Z,17.87
2018-10-12T02:06:03.464Z,17.81
2018-10-12T02:08:31.544Z,17.81
2018-10-12T02:10:59.608Z,17.81
2018-10-12T02:13:27.667Z,17.84
2018-10-12T02:15:55.732Z,17.87
2018-10-12T02:18:23.868Z,17.94
2018-10-12T02:20:52.049Z,18.01
2018-10-12T02:23:20.108Z,18.08
2018-10-12T02:25:48.173Z,18.10
2018-10-12T02:28:16.220Z,18.11
2018-10-12T02:30:44.290Z,18.11
2018-10-12T02:33:12.340Z,18.08
2018-10-12T02:35:40.404Z,18.04
2018-10-12T02:38:08.460Z,18.01
2018-10-12T02:40:36.594Z,18.00
2018-10-12T02:43:04.666Z,17.97
2018-10-12T02:45:32.740Z,17.99
2018-10-12T02:48:00.826Z,18.02
2018-10-12T02:50:28.938Z,18.04
2018-10-12T02:52:57.068Z,18.08
2018-10-12T02:55:25.131Z,18.21
2018-10-12T02:57:53.190Z,18.37
2018-10-12T03:00:21.321Z,18.48
2018-10-12T03:02:49.377Z,18.62
2018-10-12T03:05:17.527Z,18.71
2018-10-12T03:07:45.589Z,18.77
2018-10-12T03:10:13.644Z,18.81
2018-10-12T03:12:41.708Z,18.87
2018-10-12T03:15:09.761Z,18.93
2018-10-12T03:17:37.834Z,18.97
2018-10-12T03:20:05.893Z,19.02
2018-10-12T03:22:33.975Z,19.04
2018-10-12T03:25:02.112Z,19.01
2018-10-12T03:27:30.244Z,18.96
2018-10-12T03:29:58.310Z,18.95
2018-10-12T03:32:26.385Z,18.91
2018-10-12T03:34:54.477Z,18.90
2018-10-12T03:37:22.609Z,18.88
2018-10-12T03:39:50.608Z,18.80
2018-10-12T03:42:18.672Z,18.73
2018-10-12T03:44:46.728Z,18.61
2018-10-12T03:47:14.852Z,18.46
2018-10-12T03:49:42.907Z,18.35
2018-10-12T03:52:11.524Z,18.24
2018-10-12T03:54:39.625Z,18.18
2018-10-12T03:57:07.908Z,18.13
2018-10-12T03:59:35.972Z,18.08
2018-10-12T04:02:04.127Z,18.01
2018-10-12T04:04:32.237Z,17.90
2018-10-12T04:07:00.306Z,17.77
2018-10-12T04:09:28.366Z,17.66
2018-10-12T04:11:56.441Z,17.51
2018-10-12T04:14:24.509Z,17.37
2018-10-12T04:16:52.592Z,17.22
2018-10-12T04:19:20.664Z,17.03
2018-10-12T04:21:48.751Z,16.85
2018-10-12T04:24:16.808Z,16.72
2018-10-12T04:26:44.885Z,16.59
2018-10-12T04:29:13.062Z,16.39
2018-10-12T04:31:41.135Z,16.22
2018-10-12T04:34:09.197Z,16.09
2018-10-12T04:36:37.273Z,15.98
2018-10-12T04:39:16.937Z,15.83
2018-10-12T04:41:45.017Z,15.79
2018-10-12T04:44:13.088Z,15.75
2018-10-12T04:46:42.525Z,15.75
2018-10-12T04:49:12.508Z,15.73
2018-10-12T04:51:51.301Z,15.80
2018-10-12T04:54:19.721Z,15.97
2018-10-12T04:56:48.317Z,16.16
2018-10-12T04:59:16.372Z,16.29
2018-10-12T05:01:44.468Z,16.42
2018-10-12T05:04:12.621Z,16.58
2018-10-12T05:06:40.712Z,16.76
2018-10-12T05:09:09.861Z,16.86
2018-10-12T05:11:38.033Z,16.93
2018-10-12T05:14:06.340Z,16.98
2018-10-12T05:16:35.012Z,17.02
2018-10-12T05:19:03.088Z,17.03
2018-10-12T05:21:31.427Z,17.04
2018-10-12T05:23:59.496Z,17.03
2018-10-12T05:26:27.555Z,16.97
2018-10-12T05:28:55.682Z,16.95
2018-10-12T05:31:23.748Z,16.90
2018-10-12T05:33:51.926Z,16.90
2018-10-12T05:36:20.008Z,16.99
2018-10-12T05:38:48.097Z,17.04
2018-10-12T05:41:16.197Z,17.05
2018-10-12T05:43:44.424Z,17.09
2018-10-12T05:46:12.429Z,17.16
2018-10-12T05:48:52.057Z,17.21
2018-10-12T05:51:20.078Z,17.27
2018-10-12T05:53:48.468Z,17.36
2018-10-12T05:56:21.281Z,17.45
2018-10-12T05:58:49.434Z,17.54
2018-10-12T06:01:17.514Z,17.63
2018-10-12T06:03:45.573Z,17.72
2018-10-12T06:06:13.628Z,17.85
2018-10-12T06:08:42.364Z,18.15
2018-10-12T06:11:10.431Z,18.46
2018-10-12T06:13:38.610Z,18.78
2018-10-12T06:16:06.904Z,19.12
2018-10-12T06:18:34.976Z,19.45
2018-10-12T06:21:03.052Z,19.74
2018-10-12T06:23:31.123Z,20.04
2018-10-12T06:25:59.172Z,20.34
2018-10-12T06:28:27.323Z,20.53
2018-10-12T06:30:55.392Z,20.81
2018-10-12T06:33:23.474Z,21.08
2018-10-12T06:35:51.557Z,21.30
2018-10-12T06:38:20.463Z,21.57
2018-10-12T06:40:48.542Z,21.74
2018-10-12T06:43:16.674Z,21.93
2018-10-12T06:45:44.745Z,22.10
2018-10-12T06:48:12.824Z,22.17
2018-10-12T06:50:41.764Z,22.13
2018-10-12T06:53:09.970Z,22.15
2018-10-12T06:55:38.088Z,22.26
2018-10-12T06:58:06.349Z,22.53
2018-10-12T07:00:34.612Z,22.82
2018-10-12T07:03:02.774Z,23.14
2018-10-12T07:05:30.938Z,23.53
2018-10-12T07:07:59.094Z,23.83
2018-10-12T07:10:27.231Z,24.17
2018-10-12T07:12:55.336Z,24.38
2018-10-12T07:15:23.468Z,24.60
2018-10-12T07:17:54.465Z,24.77
2018-10-12T07:20:22.591Z,24.87
2018-10-12T07:22:50.715Z,25.02
2018-10-12T07:25:18.856Z,25.16
2018-10-12T07:27:47.102Z,25.27
2018-10-12T07:30:15.228Z,25.40
2018-10-12T07:32:44.691Z,25.56
2018-10-12T07:35:12.843Z,25.64
2018-10-12T07:37:41.023Z,25.81
2018-10-12T07:40:09.218Z,25.92
2018-10-12T07:42:37.670Z,25.84
2018-10-12T07:45:06.017Z,26.18
2018-10-12T07:47:34.422Z,26.24
2018-10-12T07:50:02.324Z,26.23
2018-10-12T07:52:30.455Z,26.26
2018-10-12T07:54:58.677Z,26.21
2018-10-12T07:57:30.508Z,26.19
2018-10-12T07:59:59.239Z,26.15
2018-10-12T08:02:27.329Z,26.11
2018-10-12T08:04:55.507Z,26.15
2018-10-12T08:07:23.610Z,26.16
2018-10-12T08:09:51.772Z,26.19
2018-10-12T08:12:19.928Z,26.07
2018-10-12T08:14:48.243Z,25.83
2018-10-12T08:17:16.840Z,25.70
2018-10-12T08:19:45.376Z,25.62
2018-10-12T08:22:14.044Z,25.62
2018-10-12T08:24:42.489Z,25.59
2018-10-12T08:27:11.001Z,25.53
2018-10-12T08:29:39.519Z,25.54
2018-10-12T08:32:07.861Z,25.54
2018-10-12T08:34:36.093Z,25.58
2018-10-12T08:37:04.255Z,25.54
2018-10-12T08:39:32.938Z,25.61
2018-10-12T08:42:01.271Z,25.42
2018-10-12T08:44:29.602Z,25.08
2018-10-12T08:46:57.813Z,24.79
2018-10-12T08:49:29.629Z,24.55
2018-10-12T08:51:58.006Z,24.26
2018-10-12T08:54:26.485Z,24.10
2018-10-12T08:56:54.699Z,23.98
2018-10-12T08:59:23.157Z,23.91
2018-10-12T09:01:51.379Z,23.79
2018-10-12T09:04:19.734Z,23.71
2018-10-12T09:06:47.867Z,23.70
2018-10-12T09:09:16.154Z,23.68
2018-10-12T09:11:44.280Z,23.66
2018-10-12T09:14:12.517Z,23.66
2018-10-12T09:16:40.684Z,23.67
2018-10-12T09:19:08.853Z,23.62
2018-10-12T09:21:36.998Z,23.61
2018-10-12T09:24:05.112Z,23.54
2018-10-12T09:26:33.241Z,23.60
2018-10-12T09:29:01.410Z,23.52
2018-10-12T09:31:29.573Z,23.51
2018-10-12T09:33:57.692Z,23.53
2018-10-12T09:36:25.800Z,23.50
2018-10-12T09:38:53.984Z,23.50
2018-10-12T09:41:22.129Z,23.45
2018-10-12T09:43:50.343Z,23.44
2018-10-12T09:46:18.512Z,23.52
2018-10-12T09:48:46.650Z,23.59
2018-10-12T09:51:14.809Z,23.67
2018-10-12T09:53:42.935Z,23.64
2018-10-12T09:56:11.109Z,23.63
2018-10-12T09:58:39.258Z,23.61
2018-10-12T10:01:12.672Z,23.65
2018-10-12T10:03:46.154Z,23.72
2018-10-12T10:06:14.298Z,23.78
2018-10-12T10:08:42.679Z,23.89
2018-10-12T10:11:10.702Z,23.97
2018-10-12T10:13:38.915Z,23.96
2018-10-12T10:16:07.113Z,23.93
2018-10-12T10:18:35.433Z,24.04
2018-10-12T10:21:03.634Z,24.03
2018-10-12T10:23:31.675Z,24.04
2018-10-12T10:25:59.827Z,24.08
2018-10-12T10:28:27.932Z,24.12
2018-10-12T10:30:56.037Z,24.16
2018-10-12T10:33:24.190Z,24.16
2018-10-12T10:35:52.317Z,24.24
2018-10-12T10:38:20.643Z,24.34
2018-10-12T10:40:48.773Z,24.40
2018-10-12T10:43:17.092Z,24.38
2018-10-12T10:45:45.378Z,24.35
2018-10-12T10:48:13.621Z,24.40
2018-10-12T10:50:41.846Z,24.41
2018-10-12T10:53:09.992Z,24.45
2018-10-12T10:55:38.249Z,24.55
2018-10-12T10:58:07.019Z,24.65
2018-10-12T11:00:35.190Z,24.67
2018-10-12T11:03:03.361Z,24.66
2018-10-12T11:05:31.582Z,24.66
2018-10-12T11:07:59.845Z,24.72
2018-10-12T11:10:28.069Z,24.79
2018-10-12T11:12:56.433Z,24.81
2018-10-12T11:15:24.511Z,24.86
2018-10-12T11:17:52.636Z,24.83
2018-10-12T11:20:20.849Z,24.90
2018-10-12T11:22:48.981Z,24.95
2018-10-12T11:25:17.117Z,24.97
2018-10-12T11:27:45.248Z,25.09
2018-10-12T11:30:13.388Z,25.18
2018-10-12T11:32:41.583Z,25.16
2018-10-12T11:35:09.666Z,25.13
2018-10-12T11:37:38.129Z,25.18
2018-10-12T11:40:06.779Z,25.22
2018-10-12T11:42:46.301Z,25.23
2018-10-12T11:45:14.549Z,25.38
2018-10-12T11:47:42.817Z,25.51
2018-10-12T11:50:10.929Z,25.57
2018-10-12T11:52:39.069Z,25.62
2018-10-12T11:55:07.277Z,25.61
2018-10-12T11:57:35.391Z,25.53
2018-10-12T12:00:03.521Z,25.56
2018-10-12T12:02:31.748Z,25.57
2018-10-12T12:04:59.853Z,25.57
2018-10-12T12:07:28.011Z,25.65
2018-10-12T12:09:56.197Z,25.65
2018-10-12T12:12:24.435Z,25.69
2018-10-12T12:14:52.643Z,25.74
2018-10-12T12:17:21.079Z,25.87
2018-10-12T12:19:49.215Z,25.95
2018-10-12T12:22:17.342Z,25.90
2018-10-12T12:24:45.594Z,25.97
2018-10-12T12:27:14.189Z,26.02
2018-10-12T12:29:42.305Z,25.91
2018-10-12T12:32:10.439Z,26.12
2018-10-12T12:34:38.664Z,26.03
2018-10-12T12:37:07.095Z,26.03
2018-10-12T12:39:38.362Z,25.97
2018-10-12T12:42:06.574Z,26.02
2018-10-12T12:44:34.727Z,26.00
2018-10-12T12:47:02.899Z,25.99
2018-10-12T12:49:34.096Z,26.04
2018-10-12T12:52:02.047Z,26.07
2018-10-12T12:54:30.167Z,26.13
2018-10-12T12:56:58.329Z,26.07
2018-10-12T12:59:26.440Z,26.03
2018-10-12T13:01:54.625Z,26.10
2018-10-12T13:04:22.946Z,26.08
2018-10-12T13:06:50.810Z,26.07
2018-10-12T13:09:18.929Z,26.10
2018-10-12T13:11:47.572Z,26.14
2018-10-12T13:14:15.750Z,26.20
2018-10-12T13:16:43.860Z,26.23
2018-10-12T13:19:11.980Z,26.24
2018-10-12T13:21:40.080Z,26.21
2018-10-12T13:24:08.213Z,26.17
2018-10-12T13:26:36.398Z,26.24
2018-10-12T13:29:04.938Z,26.24
2018-10-12T13:31:33.374Z,26.19
2018-10-12T13:34:01.624Z,26.24
2018-10-12T13:36:30.132Z,26.26
2018-10-12T13:38:58.271Z,26.40
2018-10-12T13:41:26.397Z,26.40
2018-10-12T13:43:54.609Z,26.32
2018-10-12T13:46:22.873Z,26.37
2018-10-12T13:48:50.973Z,26.29
2018-10-12T13:51:19.376Z,26.33
2018-10-12T13:53:47.557Z,26.32
2018-10-12T13:56:15.717Z,26.37
2018-10-12T13:58:43.971Z,26.33
2018-10-12T14:01:12.114Z,26.35
2018-10-12T14:03:40.605Z,26.38
2018-10-12T14:06:08.778Z,26.38
2018-10-12T14:08:36.907Z,26.31
2018-10-12T14:11:05.027Z,26.32
2018-10-12T14:13:33.158Z,26.32
2018-10-12T14:16:08.096Z,26.36
2018-10-12T14:18:36.289Z,26.32
2018-10-12T14:21:04.382Z,26.28
2018-10-12T14:23:32.528Z,26.25
2018-10-12T14:26:00.673Z,26.25
2018-10-12T14:28:28.812Z,26.24
2018-10-12T14:30:56.999Z,26.21
2018-10-12T14:33:25.260Z,26.29
2018-10-12T14:35:53.435Z,26.28
2018-10-12T14:38:21.624Z,26.28
2018-10-12T14:40:49.899Z,26.27
2018-10-12T14:43:18.057Z,26.26
2018-10-12T14:45:46.144Z,26.24
2018-10-12T14:48:15.333Z,26.22
2018-10-12T14:50:43.509Z,26.27
2018-10-12T14:53:11.703Z,26.24
2018-10-12T14:55:39.862Z,26.15
2018-10-12T14:58:22.613Z,26.26
2018-10-12T15:00:50.774Z,26.17
2018-10-12T15:03:18.938Z,26.14
2018-10-12T15:05:47.126Z,25.94
2018-10-12T15:08:15.335Z,26.10
2018-10-12T15:10:43.483Z,26.07
2018-10-12T15:13:11.708Z,26.04
2018-10-12T15:15:40.007Z,25.99
2018-10-12T15:18:08.277Z,25.93
2018-10-12T15:20:36.385Z,25.88
2018-10-12T15:23:04.591Z,25.83
2018-10-12T15:25:32.785Z,25.81
2018-10-12T15:28:01.184Z,25.79
2018-10-12T15:30:29.360Z,25.74
2018-10-12T15:32:57.545Z,25.71
2018-10-12T15:35:25.893Z,25.64
2018-10-12T15:37:54.106Z,25.60
2018-10-12T15:40:22.314Z,25.56
2018-10-12T15:42:50.504Z,25.53
2018-10-12T15:45:18.640Z,25.51
2018-10-12T15:47:46.913Z,25.50
2018-10-12T15:50:15.066Z,25.46
2018-10-12T15:52:43.228Z,25.39
2018-10-12T15:55:11.455Z,25.33
2018-10-12T15:57:39.589Z,25.25
2018-10-12T16:00:09.275Z,25.21
2018-10-12T16:02:37.452Z,25.15
2018-10-12T16:05:05.653Z,25.09
2018-10-12T16:07:33.868Z,25.03
2018-10-12T16:10:03.400Z,24.98
2018-10-12T16:12:31.522Z,24.96
2018-10-12T16:14:59.781Z,24.91
2018-10-12T16:17:27.945Z,24.86
2018-10-12T16:19:56.150Z,24.81
2018-10-12T16:22:24.419Z,24.75
2018-10-12T16:25:03.965Z,24.66
2018-10-12T16:27:32.200Z,24.61
2018-10-12T16:30:00.458Z,24.57
2018-10-12T16:32:28.594Z,24.52
2018-10-12T16:34:56.775Z,24.43
2018-10-12T16:37:24.905Z,24.39
2018-10-12T16:39:53.068Z,24.33
2018-10-12T16:42:21.233Z,24.28
2018-10-12T16:44:49.446Z,24.26
2018-10-12T16:47:17.668Z,24.24
2018-10-12T16:49:45.857Z,24.16
2018-10-12T16:52:14.100Z,24.14
2018-10-12T16:54:42.231Z,24.11
2018-10-12T16:57:10.370Z,24.03
2018-10-12T16:59:38.521Z,23.98
2018-10-12T17:02:06.669Z,23.96
2018-10-12T17:04:34.944Z,23.90
2018-10-12T17:07:03.078Z,23.86
2018-10-12T17:09:31.300Z,23.82
2018-10-12T17:11:59.497Z,23.77
2018-10-12T17:14:27.626Z,23.71
2018-10-12T17:17:03.132Z,23.65
2018-10-12T17:19:31.358Z,23.60
2018-10-12T17:21:59.526Z,23.56
2018-10-12T17:24:27.777Z,23.53
2018-10-12T17:26:56.184Z,23.49
2018-10-12T17:29:24.444Z,23.46
2018-10-12T17:31:52.729Z,23.41
2018-10-12T17:34:51.871Z,23.38
2018-10-12T17:37:20.048Z,23.33
2018-10-12T17:39:48.335Z,23.31
2018-10-12T17:42:17.608Z,23.33
2018-10-12T17:44:46.108Z,23.32
2018-10-12T17:47:15.262Z,23.31
2018-10-12T17:49:43.626Z,23.24
2018-10-12T17:52:11.779Z,23.27
2018-10-12T17:54:39.911Z,23.22
2018-10-12T17:57:08.177Z,23.18
2018-10-12T17:59:36.381Z,23.08
2018-10-12T18:02:04.664Z,23.06
2018-10-12T18:04:33.212Z,23.07
2018-10-12T18:07:01.459Z,23.03
2018-10-12T18:09:29.709Z,23.01
2018-10-12T18:11:57.876Z,23.00
2018-10-12T18:14:26.028Z,22.97
2018-10-12T18:16:54.185Z,22.90
2018-10-12T18:19:22.320Z,22.93
2018-10-12T18:21:50.517Z,22.92
2018-10-12T18:24:18.624Z,22.91
2018-10-12T18:26:46.737Z,22.96
2018-10-12T18:29:15.093Z,22.92
2018-10-12T18:31:43.237Z,22.90
2018-10-12T18:34:11.340Z,22.89
2018-10-12T18:36:39.520Z,22.79
2018-10-12T18:39:09.070Z,22.77
2018-10-12T18:41:37.177Z,22.77
2018-10-12T18:44:05.462Z,22.72
2018-10-12T18:46:34.231Z,22.67
2018-10-12T18:49:02.455Z,22.66
2018-10-12T18:51:30.565Z,22.61
2018-10-12T18:53:58.667Z,22.59
2018-10-12T18:56:26.730Z,22.54
2018-10-12T18:58:54.865Z,22.55
2018-10-12T19:01:23.075Z,22.56
2018-10-12T19:03:51.164Z,22.54
2018-10-12T19:06:19.299Z,22.53
2018-10-12T19:08:47.384Z,22.48
2018-10-12T19:11:15.440Z,22.45
2018-10-12T19:13:43.557Z,22.46
2018-10-12T19:16:11.609Z,22.46
2018-10-12T19:18:39.685Z,22.42
2018-10-12T19:21:07.740Z,22.37
2018-10-12T19:23:37.450Z,22.31
2018-10-12T19:26:06.942Z,22.27
2018-10-12T19:28:35.461Z,22.22
2018-10-12T19:31:04.882Z,22.21
2018-10-12T19:33:33.168Z,22.21
2018-10-12T19:36:01.236Z,22.16
2018-10-12T19:38:29.373Z,22.08
2018-10-12T19:40:57.530Z,22.13
2018-10-12T19:43:25.750Z,22.08
2018-10-12T19:45:53.923Z,22.02
2018-10-12T19:48:21.980Z,21.97
2018-10-12T19:50:50.077Z,21.98
2018-10-12T19:53:18.197Z,21.91
2018-10-12T19:55:46.252Z,21.88
2018-10-12T19:58:14.324Z,21.84
2018-10-12T20:00:42.384Z,21.83
2018-10-12T20:03:10.460Z,21.79
2018-10-12T20:05:38.604Z,21.83
2018-10-12T20:08:06.933Z,21.76
2018-10-12T20:10:35.196Z,21.71
2018-10-12T20:13:03.169Z,21.68
2018-10-12T20:15:31.249Z,21.68
2018-10-12T20:17:59.446Z,21.64
2018-10-12T20:20:27.698Z,21.63
2018-10-12T20:22:55.760Z,21.64
2018-10-12T20:25:23.831Z,21.63
2018-10-12T20:27:51.945Z,21.62
2018-10-12T20:30:20.188Z,21.62
2018-10-12T20:32:48.244Z,21.63
2018-10-12T20:35:16.304Z,21.59
2018-10-12T20:37:44.406Z,21.60
2018-10-12T20:40:12.564Z,21.57
2018-10-12T20:42:40.660Z,21.50
2018-10-12T20:45:08.743Z,21.47
2018-10-12T20:47:36.808Z,21.51
2018-10-12T20:50:04.893Z,21.49
2018-10-12T20:52:33.024Z,21.50
2018-10-12T20:55:01.330Z,21.44
2018-10-12T20:57:29.392Z,21.47
2018-10-12T20:59:57.473Z,21.46
2018-10-12T21:02:25.544Z,21.43
2018-10-12T21:04:53.614Z,21.20
2018-10-12T21:07:21.684Z,21.38
2018-10-12T21:09:50.024Z,21.36
2018-10-12T21:12:18.089Z,21.37
2018-10-12T21:14:46.152Z,21.35
2018-10-12T21:17:14.281Z,21.33
2018-10-12T21:19:42.353Z,21.30
2018-10-12T21:22:10.441Z,21.30
2018-10-12T21:24:38.496Z,21.27
2018-10-12T21:27:06.572Z,21.24
2018-10-12T21:29:34.636Z,21.22
2018-10-12T21:32:02.736Z,21.22
2018-10-12T21:34:30.792Z,21.22
2018-10-12T21:36:58.873Z,21.22
2018-10-12T21:39:26.936Z,21.24
2018-10-12T21:41:55.012Z,21.22
2018-10-12T21:44:23.161Z,21.21
2018-10-12T21:46:51.268Z,21.19
2018-10-12T21:49:19.305Z,21.13
2018-10-12T21:51:47.380Z,21.09
2018-10-12T21:54:15.445Z,21.05
2018-10-12T21:56:43.544Z,21.06
2018-10-12T21:59:11.817Z,21.04
2018-10-12T22:01:39.917Z,21.06
2018-10-12T22:04:08.145Z,21.10
2018-10-12T22:06:36.209Z,21.08
2018-10-12T22:09:07.062Z,21.12
2018-10-12T22:11:35.148Z,21.15
2018-10-12T22:14:03.470Z,21.17
2018-10-12T22:16:31.488Z,21.17
2018-10-12T22:18:59.572Z,21.15
2018-10-12T22:21:27.768Z,21.17
2018-10-12T22:23:55.964Z,21.15
2018-10-12T22:26:24.016Z,21.15
2018-10-12T22:28:52.124Z,21.15
2018-10-12T22:31:20.185Z,21.14
2018-10-12T22:36:15.504Z,21.16
2018-10-12T22:38:43.644Z,21.16
2018-10-12T22:41:11.709Z,21.16
2018-10-12T22:43:39.786Z,21.12
2018-10-12T22:46:07.896Z,21.09
2018-10-12T22:48:35.964Z,21.09
2018-10-12T22:51:04.028Z,21.06
2018-10-12T22:53:32.104Z,21.08
2018-10-12T22:56:00.160Z,21.09
2018-10-12T22:58:28.240Z,21.05
2018-10-12T23:00:56.293Z,21.03
2018-10-12T23:03:24.368Z,21.03
2018-10-12T23:05:52.427Z,21.00
2018-10-12T23:08:20.503Z,21.02
2018-10-12T23:10:48.560Z,21.01
2018-10-12T23:13:16.623Z,21.02
2018-10-12T23:15:44.691Z,21.01
2018-10-12T23:18:12.768Z,21.00
2018-10-12T23:20:40.833Z,21.04
2018-10-12T23:23:08.918Z,20.98
2018-10-12T23:25:36.976Z,21.00
2018-10-12T23:28:05.098Z,20.96
2018-10-12T23:30:33.155Z,20.95
2018-10-12T23:33:12.690Z,20.90
2018-10-12T23:35:40.744Z,20.88
2018-10-12T23:38:08.795Z,20.88
2018-10-12T23:40:36.866Z,20.84
2018-10-12T23:43:04.928Z,20.83
2018-10-12T23:45:33.056Z,20.84
2018-10-12T23:48:01.216Z,20.81
2018-10-12T23:50:29.293Z,20.78
2018-10-12T23:52:57.349Z,20.71
2018-10-12T23:55:25.417Z,20.70
2018-10-12T23:57:53.481Z,20.66
